Aérodrome :
LOGIN :

S'inscrire | Disclaimer

   EN    FR    IT 

 










Légende :    VFR   VFR Marginal   IFR   IFR Intensif   IFR Très Intensif
Visi : 
Plafond : 
>= 8 km
>= 3000ft
5 à 8 km
1000 à 3000 ft
1500m à 5 km
500 à 1000 ft
800 à 1500m
200 à 500 ft
< 800m
< 200 ft
Symboles :   Orages  Brouillard  Fortes neiges  Fortes précipitations  Vent > 20 kt
SIGMETs :   Divers  Orages  Givrage  Turbulence  Onde Orograph.  Cendres Volcan.






- Altitude de l'aérodrome : 1649 ft
- Code IATA : HHN


EDFH - Frankfurt-Hahn Rhineland-Palatinate

DERNIER METAR :
  • 280850Z 28002KT 7000 FEW001 BKN003 OVC008 00/00 Q0995

METARs EXPIRÉS :
  • 280820Z 20002KT 6000 1500E BCFG FEW001 BKN003 OVC004 00/00 Q0994
  • 280750Z 16001KT 4000 0900NE R21/1600N BR BKN002 OVC004 M00/M00 Q0994
  • 280720Z VRB01KT 4000 BR SCT011 BKN013 M00/M00 Q0994
  • 280650Z 18003KT 2700 -SN BR BKN011 OVC017 M00/M00 Q0994
  • 280620Z 15004KT 3300 -SN BR OVC011 M00/M00 Q0994

TAF TAF EDFH
Valide du 28 à 06h jusqu'au 29 à 06h UTC


280500Z 2806/2906 17004KT 7000 SCT004 BKN008
TEMPO 2806/2809 2500 -SN BKN004
BECMG 2808/2811 31006KT
TEMPO 2809/2818 3000 SHSN BKN004 BKN010TCU
PROB30
TEMPO 2809/2818 1400 SHSN BKN002TCU
TEMPO 2820/2906 2000 -SN BR BKN004



MET'MAP, la Météo Aéronautique d'un coup d'oeil ! - Copyright ORBIFLY Décembre 2007 - Disclaimer

ORBIFLY MET'MAP TEAM :

Programmation & Développement : Alexandra Zaïnal
Sur une idée originale de : Baudouin d'Aumeries
Assistance à la programmation : Marc-Olivier Méhu
Soutien technique & logistique : Manuel Goepfert

Contact : metmap@orbifly.com




SOURCES & CREDITS :

   NOAA